createdAt,value
2019-04-06T00:03:07.260Z,100360.09
2019-04-06T00:06:14.698Z,100361.73
2019-04-06T00:09:31.381Z,100368.97
2019-04-06T00:12:48.437Z,100380.61
2019-04-06T00:16:04.990Z,100381.73
2019-04-06T00:19:21.778Z,100384.11
2019-04-06T00:22:38.590Z,100374.43
2019-04-06T00:25:55.315Z,100375.22
2019-04-06T00:29:02.552Z,100374.12
2019-04-06T00:32:22.419Z,100376.45
2019-04-06T00:35:29.712Z,100378.41
2019-04-06T00:38:37.104Z,100378.27
2019-04-06T00:41:53.805Z,100377.02
2019-04-06T00:45:10.598Z,100376.75
2019-04-06T00:48:27.458Z,100380.55
2019-04-06T00:51:44.177Z,100382.34
2019-04-06T00:55:01.083Z,100383.95
2019-04-06T00:58:17.750Z,100384.49
2019-04-06T01:01:26.148Z,100394.05
2019-04-06T01:04:33.337Z,100392.81
2019-04-06T01:07:40.737Z,100408.75
2019-04-06T01:10:47.978Z,100411.70
2019-04-06T01:13:55.226Z,100411.36
2019-04-06T01:17:02.373Z,100406.81
2019-04-06T01:20:09.973Z,100416.67
2019-04-06T01:23:32.612Z,100421.80
2019-04-06T01:26:49.388Z,100416.08
2019-04-06T01:30:07.794Z,100422.45
2019-04-06T01:33:15.010Z,100420.33
2019-04-06T01:36:22.604Z,100421.09
2019-04-06T01:39:29.845Z,100418.54
2019-04-06T01:42:37.269Z,100416.30
2019-04-06T01:45:44.498Z,100414.63
2019-04-06T01:49:01.177Z,100408.69
2019-04-06T01:52:08.316Z,100406.58
2019-04-06T01:55:15.621Z,100406.73
2019-04-06T01:58:32.322Z,100398.15
2019-04-06T02:01:53.876Z,100407.88
2019-04-06T02:05:01.206Z,100406.31
2019-04-06T02:08:18.017Z,100397.23
2019-04-06T02:11:34.805Z,100396.42
2019-04-06T02:14:51.569Z,100404.85
2019-04-06T02:18:08.366Z,100396.98
2019-04-06T02:21:15.592Z,100389.05
2019-04-06T02:24:22.828Z,100389.11
2019-04-06T02:27:39.646Z,100387.64
2019-04-06T02:31:03.987Z,100380.50
2019-04-06T02:34:36.557Z,100381.54
2019-04-06T02:38:02.807Z,100376.56
2019-04-06T02:41:15.422Z,100376.28
2019-04-06T02:44:22.740Z,100378.44
2019-04-06T02:47:29.867Z,100369.36
2019-04-06T02:50:37.848Z,100369.22
2019-04-06T02:53:44.988Z,100368.98
2019-04-06T02:56:52.328Z,100367.69
2019-04-06T02:59:59.962Z,100374.30
2019-04-06T03:03:07.421Z,100368.31
2019-04-06T03:06:14.833Z,100365.16
2019-04-06T03:09:22.057Z,100360.94
2019-04-06T03:12:29.273Z,100355.59
2019-04-06T03:15:45.959Z,100348.00
2019-04-06T03:18:53.469Z,100356.67
2019-04-06T03:22:10.024Z,100359.05
2019-04-06T03:25:26.799Z,100363.13
2019-04-06T03:28:34.072Z,100366.27
2019-04-06T03:31:50.927Z,100361.23
2019-04-06T03:35:07.590Z,100362.50
2019-04-06T03:38:24.316Z,100357.91
2019-04-06T03:41:31.717Z,100364.23
2019-04-06T03:44:48.320Z,100357.91
2019-04-06T03:47:55.560Z,100349.73
2019-04-06T03:51:02.701Z,100355.34
2019-04-06T03:54:11.353Z,100354.63
2019-04-06T03:57:18.738Z,100362.11
2019-04-06T04:00:35.666Z,100357.84
2019-04-06T04:03:52.407Z,100350.11
2019-04-06T04:07:09.434Z,100353.11
2019-04-06T04:10:31.741Z,100363.95
2019-04-06T04:13:39.114Z,100366.34
2019-04-06T04:16:46.428Z,100367.98
2019-04-06T04:19:53.836Z,100364.53
2019-04-06T04:23:01.147Z,100360.84
2019-04-06T04:26:08.355Z,100355.41
2019-04-06T04:29:25.078Z,100356.16
2019-04-06T04:32:32.364Z,100369.02
2019-04-06T04:35:39.512Z,100376.18
2019-04-06T04:38:46.649Z,100368.29
2019-04-06T04:41:53.972Z,100375.33
2019-04-06T04:45:10.823Z,100368.64
2019-04-06T04:48:18.216Z,100365.81
2019-04-06T04:51:34.902Z,100365.05
2019-04-06T04:54:51.448Z,100370.23
2019-04-06T04:57:58.691Z,100377.81
2019-04-06T05:01:06.292Z,100380.37
2019-04-06T05:04:22.640Z,100379.27
2019-04-06T05:07:29.872Z,100388.03
2019-04-06T05:10:37.206Z,100389.94
2019-04-06T05:14:30.866Z,100378.58
2019-04-06T05:17:53.499Z,100380.97
2019-04-06T05:21:10.648Z,100388.66
2019-04-06T05:24:27.007Z,100380.19
2019-04-06T05:27:34.249Z,100382.48
2019-04-06T05:30:41.485Z,100378.80
2019-04-06T05:33:58.186Z,100376.17
2019-04-06T05:37:05.506Z,100381.89
2019-04-06T05:40:22.260Z,100385.81
2019-04-06T05:43:45.054Z,100384.39
2019-04-06T05:47:01.849Z,100380.25
2019-04-06T05:50:18.680Z,100393.63
2019-04-06T05:53:35.487Z,100389.86
2019-04-06T05:56:52.312Z,100379.64
2019-04-06T06:00:10.709Z,100388.83
2019-04-06T06:03:27.916Z,100389.00
2019-04-06T06:06:44.691Z,100393.88
2019-04-06T06:10:01.099Z,100390.04
2019-04-06T06:13:17.843Z,100392.53
2019-04-06T06:16:25.117Z,100393.74
2019-04-06T06:19:32.261Z,100394.95
2019-04-06T06:22:39.225Z,100395.98
2019-04-06T06:25:46.472Z,100398.78
2019-04-06T06:28:53.819Z,100400.58
2019-04-06T06:32:01.138Z,100397.11
2019-04-06T06:35:08.367Z,100399.52
2019-04-06T06:38:25.108Z,100395.32
2019-04-06T06:41:41.859Z,100392.44
2019-04-06T06:44:50.748Z,100392.94
2019-04-06T06:48:07.889Z,100397.39
2019-04-06T06:51:13.493Z,100398.14
2019-04-06T06:54:30.262Z,100399.20
2019-04-06T06:57:47.019Z,100411.03
2019-04-06T07:00:54.270Z,100418.14
2019-04-06T07:04:01.491Z,100417.53
2019-04-06T07:07:08.640Z,100409.07
2019-04-06T07:10:15.898Z,100409.38
2019-04-06T07:13:32.604Z,100399.80
2019-04-06T07:16:40.039Z,100406.81
2019-04-06T07:19:56.703Z,100401.54
2019-04-06T07:23:13.503Z,100400.61
2019-04-06T07:26:30.280Z,100402.70
2019-04-06T07:29:46.995Z,100406.11
2019-04-06T07:32:55.414Z,100408.23
2019-04-06T07:36:02.748Z,100417.73
2019-04-06T07:39:10.016Z,100410.69
2019-04-06T07:42:17.165Z,100413.27
2019-04-06T07:45:24.470Z,100397.31
2019-04-06T07:48:31.629Z,100404.86
2019-04-06T07:51:39.008Z,100409.69
2019-04-06T07:54:46.098Z,100405.33
2019-04-06T07:57:53.343Z,100405.92
2019-04-06T08:01:00.495Z,100409.84
2019-04-06T08:04:07.757Z,100415.84
2019-04-06T08:07:15.108Z,100411.36
2019-04-06T08:10:31.798Z,100396.99
2019-04-06T08:13:48.573Z,100397.54
2019-04-06T08:17:05.442Z,100392.12
2019-04-06T08:20:22.222Z,100400.25
2019-04-06T08:23:39.043Z,100387.55
2019-04-06T08:26:55.816Z,100384.19
2019-04-06T08:30:02.910Z,100381.70
2019-04-06T08:33:10.192Z,100373.20
2019-04-06T08:36:27.378Z,100382.52
2019-04-06T08:39:34.635Z,100386.10
2019-04-06T08:42:51.362Z,100382.73
2019-04-06T08:45:58.645Z,100386.72
2019-04-06T08:49:15.578Z,100383.08
2019-04-06T08:52:32.218Z,100373.82
2019-04-06T08:55:39.490Z,100375.52
2019-04-06T08:58:56.152Z,100364.14
2019-04-06T09:02:03.377Z,100363.38
2019-04-06T09:05:10.782Z,100365.98
2019-04-06T09:08:27.724Z,100360.80
2019-04-06T09:11:44.199Z,100368.31
2019-04-06T09:14:51.488Z,100373.80
2019-04-06T09:18:08.460Z,100372.75
2019-04-06T09:21:25.217Z,100377.91
2019-04-06T09:24:32.497Z,100376.25
2019-04-06T09:27:49.177Z,100375.48
2019-04-06T09:30:56.430Z,100374.20
2019-04-06T09:34:13.384Z,100371.73
2019-04-06T09:37:30.131Z,100361.86
2019-04-06T09:40:37.299Z,100377.30
2019-04-06T09:43:44.535Z,100378.43
2019-04-06T09:47:05.807Z,100370.73
2019-04-06T09:50:22.706Z,100382.83
2019-04-06T09:54:06.209Z,100380.06
2019-04-06T09:57:45.648Z,100374.12
2019-04-06T10:01:12.593Z,100367.95
2019-04-06T10:04:29.668Z,100373.76
2019-04-06T10:07:55.831Z,100369.85
2019-04-06T10:11:34.572Z,100370.83
2019-04-06T10:15:07.121Z,100368.34
2019-04-06T10:18:42.423Z,100362.56
2019-04-06T10:22:17.445Z,100368.69
2019-04-06T10:26:03.465Z,100365.25
2019-04-06T10:29:48.930Z,100361.38
2019-04-06T10:32:59.657Z,100359.62
2019-04-06T10:36:15.803Z,100363.53
2019-04-06T10:39:29.697Z,100359.25
2019-04-06T10:42:54.568Z,100351.71
2019-04-06T10:46:24.427Z,100352.72
2019-04-06T10:49:50.696Z,100349.11
2019-04-06T10:53:15.864Z,100347.52
2019-04-06T10:56:44.889Z,100348.38
2019-04-06T11:00:11.098Z,100349.63
2019-04-06T11:03:27.571Z,100345.18
2019-04-06T11:07:23.639Z,100342.20
2019-04-06T11:10:52.266Z,100343.67
2019-04-06T11:14:35.885Z,100349.92
2019-04-06T11:17:59.070Z,100351.31
2019-04-06T11:21:25.459Z,100352.84
2019-04-06T11:24:51.758Z,100341.79
2019-04-06T11:28:21.132Z,100341.54
2019-04-06T11:31:45.856Z,100335.98
2019-04-06T11:35:14.882Z,100334.91
2019-04-06T11:39:07.287Z,100323.47
2019-04-06T11:42:33.890Z,100323.47
2019-04-06T11:45:50.670Z,100321.59
2019-04-06T11:49:19.679Z,100326.59
2019-04-06T11:52:36.043Z,100317.69
2019-04-06T11:56:37.488Z,100318.87
2019-04-06T12:00:02.486Z,100318.95
2019-04-06T12:03:37.474Z,100311.33
2019-04-06T12:07:08.611Z,100317.38
2019-04-06T12:10:22.570Z,100327.55
2019-04-06T12:14:04.387Z,100310.53
2019-04-06T12:17:18.623Z,100309.98
2019-04-06T12:21:00.646Z,100306.28
2019-04-06T12:24:56.732Z,100297.56
2019-04-06T12:28:25.668Z,100298.95
2019-04-06T12:32:14.951Z,100297.31
2019-04-06T12:35:49.094Z,100302.67
2019-04-06T12:39:34.078Z,100299.77
2019-04-06T12:43:15.132Z,100290.75
2019-04-06T12:46:38.462Z,100294.98
2019-04-06T12:50:03.844Z,100294.83
2019-04-06T12:53:45.662Z,100292.91
2019-04-06T12:57:12.207Z,100287.98
2019-04-06T13:00:49.470Z,100286.80
2019-04-06T13:04:37.046Z,100287.86
2019-04-06T13:08:02.083Z,100290.99
2019-04-06T13:11:35.069Z,100284.05
2019-04-06T13:15:13.632Z,100277.52
2019-04-06T13:18:28.679Z,100273.50
2019-04-06T13:21:49.901Z,100268.55
2019-04-06T13:25:46.166Z,100270.92
2019-04-06T13:29:11.652Z,100257.67
2019-04-06T13:32:49.641Z,100262.37
2019-04-06T13:36:15.101Z,100260.98
2019-04-06T13:39:30.671Z,100252.72
2019-04-06T13:43:02.240Z,100254.00
2019-04-06T13:46:28.224Z,100252.55
2019-04-06T13:50:17.552Z,100250.22
2019-04-06T13:53:53.743Z,100246.25
2019-04-06T13:57:26.345Z,100246.80
2019-04-06T14:00:56.381Z,100246.80
2019-04-06T14:04:34.596Z,100239.64
2019-04-06T14:08:12.247Z,100235.27
2019-04-06T14:11:27.554Z,100235.93
2019-04-06T14:14:52.287Z,100232.63
2019-04-06T14:18:08.111Z,100231.28
2019-04-06T14:21:34.275Z,100235.09
2019-04-06T14:25:00.514Z,100240.20
2019-04-06T14:28:26.786Z,100233.97
2019-04-06T14:31:46.503Z,100237.89
2019-04-06T14:35:18.688Z,100234.39
2019-04-06T14:39:09.636Z,100230.90
2019-04-06T14:42:34.512Z,100237.80
2019-04-06T14:46:04.256Z,100240.56
2019-04-06T14:49:29.903Z,100233.71
2019-04-06T14:53:27.123Z,100234.38
2019-04-06T14:57:02.581Z,100235.62
2019-04-06T15:00:21.873Z,100243.66
2019-04-06T15:03:40.316Z,100233.94
2019-04-06T15:07:10.692Z,100235.71
2019-04-06T15:10:28.505Z,100236.45
2019-04-06T15:14:20.815Z,100238.53
2019-04-06T15:17:34.676Z,100234.98
2019-04-06T15:20:51.972Z,100240.83
2019-04-06T15:24:33.625Z,100235.50
2019-04-06T15:27:47.267Z,100233.20
2019-04-06T15:31:03.962Z,100236.87
2019-04-06T15:34:46.048Z,100233.16
2019-04-06T15:38:15.752Z,100242.78
2019-04-06T15:41:35.518Z,100241.62
2019-04-06T15:45:21.839Z,100238.90
2019-04-06T15:48:46.789Z,100242.27
2019-04-06T15:52:15.556Z,100237.95
2019-04-06T15:55:43.437Z,100234.29
2019-04-06T15:59:04.554Z,100237.80
2019-04-06T16:02:29.548Z,100235.38
2019-04-06T16:06:15.811Z,100236.10
2019-04-06T16:09:42.250Z,100232.12
2019-04-06T16:13:08.598Z,100224.84
2019-04-06T16:16:20.616Z,100230.22
2019-04-06T16:19:35.739Z,100233.30
2019-04-06T16:23:07.962Z,100239.98
2019-04-06T16:26:50.132Z,100226.63
2019-04-06T16:30:25.859Z,100231.38
2019-04-06T16:33:42.551Z,100236.77
2019-04-06T16:37:01.726Z,100237.29
2019-04-06T16:40:37.066Z,100236.95
2019-04-06T16:44:12.131Z,100242.67
2019-04-06T16:47:35.979Z,100242.93
2019-04-06T16:50:54.131Z,100242.42
2019-04-06T16:54:08.217Z,100243.63
2019-04-06T16:57:55.351Z,100242.23
2019-04-06T17:01:44.491Z,100240.79
2019-04-06T17:05:03.739Z,100248.31
2019-04-06T17:09:05.494Z,100250.38
2019-04-06T17:12:39.486Z,100250.42
2019-04-06T17:16:19.120Z,100250.15
2019-04-06T17:19:37.346Z,100258.24
2019-04-06T17:23:03.907Z,100253.52
2019-04-06T17:26:35.842Z,100262.79
2019-04-06T17:30:25.985Z,100257.55
2019-04-06T17:33:49.513Z,100267.03
2019-04-06T17:37:10.358Z,100267.91
2019-04-06T17:40:24.387Z,100267.91
2019-04-06T17:43:52.829Z,100271.75
2019-04-06T17:47:25.176Z,100272.83
2019-04-06T17:50:44.120Z,100267.29
2019-04-06T17:54:26.020Z,100266.30
2019-04-06T17:57:41.048Z,100279.86
2019-04-06T18:01:13.252Z,100278.09
2019-04-06T18:04:46.435Z,100277.62
2019-04-06T18:08:08.222Z,100278.78
2019-04-06T18:11:36.476Z,100283.58
2019-04-06T18:14:42.250Z,100284.23
2019-04-06T18:17:48.342Z,100298.36
2019-04-06T18:20:55.701Z,100299.73
2019-04-06T18:24:03.577Z,100303.14
2019-04-06T18:27:10.804Z,100303.00
2019-04-06T18:30:18.249Z,100300.05
2019-04-06T18:33:26.104Z,100300.09
2019-04-06T18:36:46.043Z,100303.84
2019-04-06T18:39:53.954Z,100303.14
2019-04-06T18:43:01.517Z,100317.42
2019-04-06T18:46:18.229Z,100320.89
2019-04-06T18:49:26.024Z,100323.77
2019-04-06T18:52:33.994Z,100324.39
2019-04-06T18:55:41.227Z,100326.65
2019-04-06T18:58:48.575Z,100325.14
2019-04-06T19:01:56.288Z,100325.14
2019-04-06T19:05:12.758Z,100325.80
2019-04-06T19:08:29.680Z,100330.47
2019-04-06T19:11:54.475Z,100328.05
2019-04-06T19:15:06.944Z,100329.02
2019-04-06T19:18:14.474Z,100330.28
2019-04-06T19:21:21.913Z,100331.15
2019-04-06T19:24:29.676Z,100328.71
2019-04-06T19:27:46.376Z,100323.98
2019-04-06T19:31:03.072Z,100328.25
2019-04-06T19:34:10.408Z,100328.56
2019-04-06T19:37:27.080Z,100324.53
2019-04-06T19:40:34.568Z,100329.64
2019-04-06T19:43:51.136Z,100332.97
2019-04-06T19:47:07.863Z,100333.00
2019-04-06T19:50:15.782Z,100342.33
2019-04-06T19:53:23.159Z,100340.73
2019-04-06T19:56:30.379Z,100342.74
2019-04-06T19:59:37.527Z,100345.05
2019-04-06T20:02:44.832Z,100336.44
2019-04-06T20:05:52.231Z,100340.02
2019-04-06T20:08:59.555Z,100343.95
2019-04-06T20:12:07.833Z,100356.02
2019-04-06T20:15:15.496Z,100350.14
2019-04-06T20:18:22.919Z,100345.86
2019-04-06T20:21:30.706Z,100342.55
2019-04-06T20:24:36.418Z,100341.47
2019-04-06T20:27:52.749Z,100342.86
2019-04-06T20:30:59.349Z,100340.55
2019-04-06T20:34:06.694Z,100330.74
2019-04-06T20:37:14.038Z,100328.43
2019-04-06T20:40:22.018Z,100338.40
2019-04-06T20:43:29.340Z,100333.95
2019-04-06T20:46:36.681Z,100336.91
2019-04-06T20:49:44.005Z,100334.27
2019-04-06T20:52:51.257Z,100335.27
2019-04-06T20:55:58.570Z,100336.94
2019-04-06T20:59:06.487Z,100334.81
2019-04-06T21:02:23.072Z,100338.77
2019-04-06T21:05:30.237Z,100339.59
2019-04-06T21:08:37.374Z,100335.82
2019-04-06T21:11:44.798Z,100332.05
2019-04-06T21:15:01.706Z,100330.85
2019-04-06T21:18:09.472Z,100334.23
2019-04-06T21:21:16.716Z,100336.52
2019-04-06T21:24:22.826Z,100338.53
2019-04-06T21:27:30.415Z,100345.04
2019-04-06T21:30:47.137Z,100336.52
2019-04-06T21:34:10.437Z,100335.48
2019-04-06T21:37:13.393Z,100334.11
2019-04-06T21:40:21.475Z,100337.39
2019-04-06T21:43:38.264Z,100336.50
2019-04-06T21:46:45.518Z,100341.77
2019-04-06T21:50:02.229Z,100333.56
2019-04-06T21:53:19.597Z,100332.34
2019-04-06T21:56:27.155Z,100336.55
2019-04-06T21:59:34.515Z,100339.58
2019-04-06T22:02:41.781Z,100336.73
2019-04-06T22:05:48.807Z,100340.38
2019-04-06T22:08:56.789Z,100334.64
2019-04-06T22:12:15.595Z,100333.27
2019-04-06T22:15:23.613Z,100324.56
2019-04-06T22:18:30.803Z,100331.08
2019-04-06T22:21:38.485Z,100328.78
2019-04-06T22:24:46.294Z,100328.87
2019-04-06T22:28:02.800Z,100327.22
2019-04-06T22:31:11.020Z,100330.47
2019-04-06T22:34:18.437Z,100326.83
2019-04-06T22:37:25.631Z,100323.21
2019-04-06T22:40:33.509Z,100319.69
2019-04-06T22:43:41.400Z,100328.26
2019-04-06T22:46:48.734Z,100322.73
2019-04-06T22:49:56.187Z,100320.17
2019-04-06T22:53:13.249Z,100317.20
2019-04-06T22:56:31.001Z,100318.48
2019-04-06T22:59:38.228Z,100326.25
2019-04-06T23:03:03.929Z,100324.05
2019-04-06T23:06:14.321Z,100324.80
2019-04-06T23:09:21.704Z,100316.13
2019-04-06T23:12:29.045Z,100317.35
2019-04-06T23:15:36.416Z,100316.72
2019-04-06T23:18:43.589Z,100321.89
2019-04-06T23:21:50.924Z,100320.61
2019-04-06T23:24:58.260Z,100323.34
2019-04-06T23:28:05.856Z,100318.16
2019-04-06T23:31:13.159Z,100317.05
2019-04-06T23:34:20.840Z,100318.09
2019-04-06T23:37:28.087Z,100318.78
2019-04-06T23:40:35.414Z,100320.00
2019-04-06T23:43:42.784Z,100318.52
2019-04-06T23:46:50.135Z,100319.18
2019-04-06T23:49:57.507Z,100321.00
2019-04-06T23:53:04.831Z,100318.52
2019-04-06T23:56:12.185Z,100311.10
2019-04-06T23:59:19.992Z,100319.05
